Weather at High School Heliport

Public forecast

Using degrees Fahrenheit for public forecast. Weather courtesy of forecast.io.

Closest aviation weather report (METAR) to High School Heliport

Closest report is Norwood Memorial Airport, 12.0 nm (22.2 km) E. Retrieved 2020/09/19 14:53 UTC (10 minutes ago):

KOWD 191453Z 01011G17KT 10SM CLR 16/M02 A3032 RMK AO2 SLP266 T01561017 51015

Closest aviation forecast (TAF) to High School Heliport

Closest forecast is Laurence G Hanscom Field, 17.3 nm (32.0 km) NNE. Retrieved 2020/09/19 12:22 UTC (3 hours ago):

TAF KFDY 191120Z 1912/2012 06005KT P6SM SKC TAF KBED 191120Z 1912/2012 35006KT P6SM SKC FM191400 01010G19KT P6SM SKC FM192300 36005KT P6SM SKC